Time;durP1;ratioP1;P1;durP2;ratioP2;P2;SDS_P1;SDS_P2;PMS_P1;PMS_P2;Temp;Humidity;BMP_temperature;BMP_pressure;BME280_temperature;BME280_humidity;BME280_pressure;Samples;Min_cycle;Max_cycle;Signal;HPM_P1;HPM_P2
2022/03/11 00:02:04;;;;;;;16.73;10.35;;;5.90;99.90;;;;;;5057721;28;20060;-80
2022/03/11 00:04:29;;;;;;;17.15;11.02;;;5.80;99.90;;;;;;5035374;28;20075;-81
2022/03/11 00:06:55;;;;;;;16.30;10.90;;;5.80;99.90;;;;;;5062355;28;20095;-81
2022/03/11 00:09:22;;;;;;;20.13;11.55;;;5.80;99.90;;;;;;5061300;28;20806;-81
2022/03/11 00:11:47;;;;;;;15.43;10.35;;;5.70;99.90;;;;;;5061814;28;20032;-82
2022/03/11 00:14:13;;;;;;;17.15;10.80;;;5.60;99.90;;;;;;5057016;28;20113;-81
2022/03/11 00:16:39;;;;;;;19.58;11.65;;;5.60;99.90;;;;;;5061075;28;20061;-80
2022/03/11 00:19:04;;;;;;;16.63;11.00;;;5.60;99.90;;;;;;5058739;28;20044;-80
2022/03/11 00:21:30;;;;;;;15.93;10.65;;;5.60;99.90;;;;;;5059526;28;20051;-82
2022/03/11 00:23:56;;;;;;;14.88;9.80;;;5.70;99.90;;;;;;5059939;28;20075;-79
2022/03/11 00:26:21;;;;;;;14.15;10.50;;;5.70;99.90;;;;;;5067165;28;20094;-83
2022/03/11 00:28:47;;;;;;;26.13;10.23;;;5.70;99.90;;;;;;5060840;28;20094;-81
2022/03/11 00:31:12;;;;;;;12.57;9.98;;;5.70;99.90;;;;;;5043404;28;20076;-81
2022/03/11 00:33:38;;;;;;;14.80;10.77;;;5.70;99.90;;;;;;5043377;28;20044;-81
2022/03/11 00:36:04;;;;;;;30.77;10.18;;;5.70;99.90;;;;;;5043080;28;20041;-81
2022/03/11 00:38:29;;;;;;;16.92;10.73;;;5.70;99.90;;;;;;5060755;28;20059;-83
2022/03/11 00:40:58;;;;;;;13.88;9.70;;;5.60;99.90;;;;;;5061674;28;20102;-80
2022/03/11 00:43:24;;;;;;;12.90;8.70;;;5.50;99.90;;;;;;5037835;28;20467;-81
2022/03/11 00:45:50;;;;;;;17.00;11.13;;;5.60;99.90;;;;;;5060489;28;20079;-78
2022/03/11 00:48:16;;;;;;;11.65;8.55;;;5.50;99.90;;;;;;5068761;28;20060;-82
2022/03/11 00:50:41;;;;;;;18.30;11.68;;;5.60;99.90;;;;;;5058797;28;20567;-83
2022/03/11 00:53:07;;;;;;;17.17;11.27;;;5.50;99.90;;;;;;5057088;28;20079;-82
2022/03/11 00:55:33;;;;;;;30.98;10.65;;;5.50;99.90;;;;;;5051801;28;20095;-82
2022/03/11 00:57:58;;;;;;;24.10;12.50;;;5.50;99.90;;;;;;5058883;28;20497;-83
2022/03/11 01:00:24;;;;;;;17.33;9.50;;;5.50;99.90;;;;;;5061495;28;20123;-81
2022/03/11 01:02:49;;;;;;;23.15;10.82;;;5.50;99.90;;;;;;5054538;28;20510;-82
2022/03/11 01:05:15;;;;;;;16.98;10.77;;;5.40;99.90;;;;;;5041499;28;20040;-82
2022/03/11 01:07:41;;;;;;;16.42;9.65;;;5.40;99.90;;;;;;5041906;28;20463;-82
2022/03/11 01:10:08;;;;;;;19.50;11.55;;;5.40;99.90;;;;;;5032511;28;20033;-82
2022/03/11 01:12:34;;;;;;;15.10;8.95;;;5.30;99.90;;;;;;5042677;28;20072;-81
2022/03/11 01:15:00;;;;;;;15.68;10.13;;;5.30;99.90;;;;;;5061757;28;20067;-81
2022/03/11 01:17:25;;;;;;;13.80;9.90;;;5.20;99.90;;;;;;5060400;28;20828;-78
2022/03/11 01:19:51;;;;;;;12.63;9.10;;;5.30;99.90;;;;;;5059734;28;20033;-82
2022/03/11 01:22:17;;;;;;;13.30;8.73;;;5.10;99.90;;;;;;5057518;28;20653;-84
2022/03/11 01:24:42;;;;;;;14.63;10.75;;;5.10;99.90;;;;;;5060333;28;20068;-83
2022/03/11 01:27:08;;;;;;;13.23;9.18;;;5.20;99.90;;;;;;5057706;28;20079;-81
2022/03/11 01:29:34;;;;;;;14.88;9.57;;;5.00;99.90;;;;;;5058236;28;20491;-81
2022/03/11 01:31:59;;;;;;;14.75;9.68;;;5.00;99.90;;;;;;5057353;28;20079;-81
2022/03/11 01:34:25;;;;;;;16.90;8.77;;;5.00;99.90;;;;;;5055808;28;20040;-81
2022/03/11 01:36:50;;;;;;;13.60;9.98;;;5.00;99.90;;;;;;5076442;28;20037;-82
2022/03/11 01:39:16;;;;;;;13.45;10.07;;;5.00;99.90;;;;;;5059478;28;20044;-82
2022/03/11 01:41:41;;;;;;;13.73;9.02;;;5.00;99.90;;;;;;5060701;28;20071;-82
2022/03/11 01:44:09;;;;;;;16.13;10.10;;;4.90;99.90;;;;;;5057578;28;20560;-82
2022/03/11 01:46:36;;;;;;;12.52;9.98;;;4.80;99.90;;;;;;5057075;28;20139;-81
2022/03/11 01:49:04;;;;;;;17.10;10.48;;;4.80;99.90;;;;;;5055899;28;20052;-81
2022/03/11 01:51:32;;;;;;;14.93;9.07;;;4.80;99.90;;;;;;5055735;28;20779;-82
2022/03/11 01:53:58;;;;;;;13.95;8.65;;;4.70;99.90;;;;;;5057775;28;20041;-82
2022/03/11 01:56:25;;;;;;;13.40;9.98;;;4.70;99.90;;;;;;5045565;28;20395;-82
2022/03/11 01:58:53;;;;;;;11.85;7.38;;;4.70;99.90;;;;;;5042832;28;20044;-82
2022/03/11 02:01:19;;;;;;;13.13;8.45;;;4.70;99.90;;;;;;5057908;28;20052;-82
2022/03/11 02:03:45;;;;;;;12.07;8.30;;;4.70;99.90;;;;;;5031371;28;20052;-80
2022/03/11 02:06:13;;;;;;;14.38;9.90;;;4.70;99.90;;;;;;5052911;28;20521;-82
2022/03/11 02:08:40;;;;;;;12.80;8.80;;;4.60;99.90;;;;;;5041847;28;20448;-84
2022/03/11 02:11:06;;;;;;;13.23;8.27;;;4.50;99.90;;;;;;5056793;28;20041;-80
2022/03/11 02:13:43;;;;;;;11.70;7.43;;;4.60;99.90;;;;;;5055970;28;20040;-81
2022/03/11 02:16:14;;;;;;;13.13;7.95;;;4.50;99.90;;;;;;5056155;28;20079;-81
2022/03/11 02:18:41;;;;;;;16.63;9.98;;;4.50;99.90;;;;;;5038316;28;20063;-81
2022/03/11 02:21:09;;;;;;;15.23;9.00;;;4.50;99.90;;;;;;5057916;28;20036;-82
2022/03/11 02:23:45;;;;;;;13.88;9.73;;;4.40;99.90;;;;;;5052733;28;20499;-81
2022/03/11 02:26:11;;;;;;;14.75;8.80;;;4.50;99.90;;;;;;5057308;28;20390;-82
2022/03/11 02:28:37;;;;;;;14.30;9.27;;;4.40;99.90;;;;;;5036529;28;20486;-80
2022/03/11 02:31:03;;;;;;;12.85;8.63;;;4.30;99.90;;;;;;5036703;28;20036;-80
2022/03/11 02:33:29;;;;;;;15.82;8.85;;;4.30;99.90;;;;;;5058699;28;20102;-82
2022/03/11 02:35:54;;;;;;;14.18;9.35;;;4.30;99.90;;;;;;5057323;28;20140;-79
2022/03/11 02:38:20;;;;;;;14.82;9.00;;;4.30;99.90;;;;;;5057817;28;20508;-81
2022/03/11 02:40:46;;;;;;;15.45;8.65;;;4.20;99.90;;;;;;5060252;28;20047;-81
2022/03/11 02:43:13;;;;;;;15.65;10.57;;;4.20;99.90;;;;;;5057910;28;20037;-82
2022/03/11 02:45:39;;;;;;;13.15;8.85;;;4.20;99.90;;;;;;5041650;28;20044;-81
2022/03/11 02:48:05;;;;;;;13.55;9.02;;;4.20;99.90;;;;;;5058462;28;20066;-81
2022/03/11 02:50:31;;;;;;;12.43;8.75;;;4.10;99.90;;;;;;5057427;28;20037;-82
2022/03/11 02:52:57;;;;;;;15.45;8.85;;;4.20;99.90;;;;;;5059802;28;20051;-84
2022/03/11 02:55:23;;;;;;;15.55;9.85;;;4.20;99.90;;;;;;5060828;28;20076;-83
2022/03/11 02:57:48;;;;;;;18.73;9.20;;;4.20;99.90;;;;;;5060160;28;20044;-81
2022/03/11 03:00:14;;;;;;;14.85;8.65;;;4.20;99.90;;;;;;5040664;28;20028;-81
2022/03/11 03:02:40;;;;;;;13.02;9.50;;;4.20;99.90;;;;;;5056559;28;20403;-81
2022/03/11 03:05:06;;;;;;;12.05;8.07;;;4.20;99.90;;;;;;5055063;28;20040;-82
2022/03/11 03:07:32;;;;;;;16.40;10.77;;;4.20;99.90;;;;;;5058450;28;20071;-81
2022/03/11 03:09:58;;;;;;;16.10;11.38;;;4.00;99.90;;;;;;5057879;28;20032;-80
2022/03/11 03:12:25;;;;;;;17.63;10.65;;;4.10;99.90;;;;;;5058577;28;20076;-81
2022/03/11 03:14:50;;;;;;;13.18;8.88;;;4.20;99.90;;;;;;5056925;28;20049;-81
2022/03/11 03:17:18;;;;;;;16.02;9.45;;;4.10;99.90;;;;;;5059276;28;20044;-81
2022/03/11 03:19:44;;;;;;;14.60;10.98;;;4.10;99.90;;;;;;5056496;28;20115;-83
2022/03/11 03:22:10;;;;;;;16.20;10.27;;;4.00;99.90;;;;;;5059321;28;20036;-85
2022/03/11 03:24:35;;;;;;;13.48;9.02;;;4.00;99.90;;;;;;5057044;28;20048;-83
2022/03/11 03:27:02;;;;;;;15.18;10.52;;;4.00;99.90;;;;;;5054429;28;20055;-80
2022/03/11 03:29:28;;;;;;;16.00;9.77;;;4.00;99.90;;;;;;5058271;28;20062;-80
2022/03/11 03:31:57;;;;;;;18.15;10.10;;;3.90;99.90;;;;;;5064768;28;20040;-81
2022/03/11 03:34:30;;;;;;;14.60;10.60;;;3.90;99.90;;;;;;5065364;28;20047;-82
2022/03/11 03:37:00;;;;;;;19.48;10.93;;;3.90;99.90;;;;;;5035104;28;20739;-77
2022/03/11 03:39:25;;;;;;;17.88;12.15;;;3.90;99.90;;;;;;5061664;28;20098;-79
2022/03/11 03:41:52;;;;;;;19.48;11.38;;;3.90;99.90;;;;;;5070581;28;20044;-83
2022/03/11 03:44:18;;;;;;;19.42;11.43;;;3.90;99.90;;;;;;5055245;28;20084;-81
2022/03/11 03:46:43;;;;;;;14.95;11.15;;;3.90;99.90;;;;;;5070212;28;20620;-82
2022/03/11 03:49:09;;;;;;;19.73;11.95;;;3.90;99.90;;;;;;5067465;28;20049;-83
2022/03/11 03:51:35;;;;;;;15.85;11.27;;;3.80;99.90;;;;;;5059426;28;20414;-80
2022/03/11 03:54:01;;;;;;;23.13;12.57;;;3.80;99.90;;;;;;5062300;28;20040;-81
2022/03/11 03:56:26;;;;;;;18.70;12.88;;;3.70;99.90;;;;;;5040105;28;20498;-77
2022/03/11 03:58:52;;;;;;;13.77;10.48;;;3.70;99.90;;;;;;5061020;28;20051;-81
2022/03/11 04:01:17;;;;;;;17.25;12.10;;;3.60;99.90;;;;;;5056794;28;20036;-80
2022/03/11 04:03:43;;;;;;;18.20;12.23;;;3.60;99.90;;;;;;5059836;28;20040;-81
2022/03/11 04:06:09;;;;;;;17.63;11.02;;;3.70;99.90;;;;;;5061070;28;20411;-80
2022/03/11 04:08:34;;;;;;;20.50;13.63;;;3.70;99.90;;;;;;5063216;28;20037;-81
2022/03/11 04:11:00;;;;;;;19.00;12.65;;;3.70;99.90;;;;;;5059600;28;20044;-81
2022/03/11 04:13:26;;;;;;;27.00;14.45;;;3.70;99.90;;;;;;5066430;28;20119;-80
2022/03/11 04:15:52;;;;;;;20.65;12.25;;;3.70;99.90;;;;;;5055988;28;20048;-78
2022/03/11 04:18:17;;;;;;;20.80;12.93;;;3.70;99.90;;;;;;5059902;28;20096;-82
2022/03/11 04:20:43;;;;;;;22.23;12.38;;;3.70;99.90;;;;;;5060749;28;20064;-82
2022/03/11 04:23:09;;;;;;;19.10;13.55;;;3.60;99.90;;;;;;5060379;28;20059;-79
2022/03/11 04:25:34;;;;;;;20.08;13.00;;;3.60;99.90;;;;;;5060436;28;20033;-81
2022/03/11 04:28:00;;;;;;;21.05;12.43;;;3.50;99.90;;;;;;5066389;28;20055;-83
2022/03/11 04:30:25;;;;;;;20.10;13.90;;;3.60;99.90;;;;;;5061640;28;20090;-77
2022/03/11 04:32:51;;;;;;;22.15;12.98;;;3.50;99.90;;;;;;5062786;28;20486;-81
2022/03/11 04:35:17;;;;;;;20.60;13.95;;;3.50;99.90;;;;;;5059055;28;20044;-81
2022/03/11 04:37:43;;;;;;;23.55;13.48;;;3.50;99.90;;;;;;5060549;28;20052;-80
2022/03/11 04:40:09;;;;;;;21.17;14.98;;;3.40;99.90;;;;;;5060531;28;20041;-80
2022/03/11 04:42:35;;;;;;;22.70;12.98;;;3.40;99.90;;;;;;5060552;28;20041;-82
2022/03/11 04:45:01;;;;;;;19.17;13.80;;;3.30;99.90;;;;;;5061404;28;20040;-82
2022/03/11 04:47:27;;;;;;;27.50;15.25;;;3.30;99.90;;;;;;5060725;28;20143;-81
2022/03/11 04:49:53;;;;;;;28.35;15.88;;;3.30;99.90;;;;;;5063161;28;20089;-82
2022/03/11 04:52:19;;;;;;;21.17;14.52;;;3.30;99.90;;;;;;5061658;28;20032;-81
2022/03/11 04:54:44;;;;;;;21.42;13.95;;;3.30;99.90;;;;;;5059553;28;20043;-81
2022/03/11 04:57:10;;;;;;;21.40;14.90;;;3.30;99.90;;;;;;5058225;28;20080;-80
2022/03/11 04:59:36;;;;;;;23.25;15.50;;;3.30;99.90;;;;;;5059689;28;20052;-81
2022/03/11 05:02:01;;;;;;;25.95;14.80;;;3.30;99.90;;;;;;5059225;28;20045;-81
2022/03/11 05:04:27;;;;;;;19.15;13.93;;;3.30;99.90;;;;;;5057131;28;20040;-81
2022/03/11 05:06:52;;;;;;;20.70;13.48;;;3.20;99.90;;;;;;5058516;28;20052;-81
2022/03/11 05:09:18;;;;;;;22.70;16.00;;;3.20;99.90;;;;;;5061935;28;20044;-83
2022/03/11 05:11:43;;;;;;;24.67;15.45;;;3.30;99.90;;;;;;5059623;28;20044;-81
2022/03/11 05:14:09;;;;;;;23.05;15.68;;;3.20;99.90;;;;;;5060777;28;20049;-81
2022/03/11 05:16:35;;;;;;;28.33;18.27;;;3.20;99.90;;;;;;5059199;28;20167;-82
2022/03/11 05:19:00;;;;;;;23.15;16.27;;;3.10;99.90;;;;;;5062376;28;20063;-81
2022/03/11 05:21:26;;;;;;;24.35;15.38;;;3.20;99.90;;;;;;5061615;28;20079;-84
2022/03/11 05:23:52;;;;;;;26.60;15.43;;;3.20;99.90;;;;;;5062258;28;20472;-82
2022/03/11 05:26:27;;;;;;;22.77;15.55;;;3.20;99.90;;;;;;5062383;28;20044;-82
2022/03/11 05:28:55;;;;;;;23.52;15.70;;;3.10;99.90;;;;;;5060040;28;20054;-81
2022/03/11 05:31:21;;;;;;;20.55;14.02;;;3.10;99.90;;;;;;5058631;28;20044;-80
2022/03/11 05:33:48;;;;;;;24.23;17.55;;;3.00;99.90;;;;;;5059041;28;20076;-80
2022/03/11 05:36:14;;;;;;;23.33;16.55;;;3.10;99.90;;;;;;5059785;28;20062;-81
2022/03/11 05:38:40;;;;;;;27.08;17.15;;;3.00;99.90;;;;;;5056964;28;20037;-81
2022/03/11 05:41:05;;;;;;;29.08;18.65;;;3.10;99.90;;;;;;5059467;28;20380;-80
2022/03/11 05:43:31;;;;;;;24.38;16.75;;;3.10;99.90;;;;;;5058625;28;20087;-80
2022/03/11 05:45:56;;;;;;;27.67;15.15;;;3.00;99.90;;;;;;5057766;28;20754;-82
2022/03/11 05:48:22;;;;;;;30.05;18.00;;;3.10;99.90;;;;;;5062766;28;20074;-79
2022/03/11 05:50:48;;;;;;;28.65;15.77;;;3.00;99.90;;;;;;5060929;28;20094;-82
2022/03/11 05:53:13;;;;;;;27.92;17.95;;;2.90;99.90;;;;;;5059169;28;20056;-81
2022/03/11 05:55:39;;;;;;;25.48;16.88;;;3.00;99.90;;;;;;5057407;28;20068;-85
2022/03/11 05:58:04;;;;;;;21.92;15.35;;;3.00;99.90;;;;;;5063179;28;20592;-81
2022/03/11 06:00:30;;;;;;;25.60;16.85;;;3.00;99.90;;;;;;5057937;28;20044;-80
2022/03/11 06:02:55;;;;;;;25.90;17.23;;;3.00;99.90;;;;;;5038278;28;20131;-77
2022/03/11 06:05:21;;;;;;;22.70;15.52;;;3.00;99.90;;;;;;5059953;28;20039;-76
2022/03/11 06:07:47;;;;;;;26.05;17.05;;;3.00;99.90;;;;;;5054624;28;20052;-76
2022/03/11 06:10:12;;;;;;;26.17;16.85;;;3.00;99.90;;;;;;5040717;28;20044;-77
2022/03/11 06:12:38;;;;;;;29.15;17.88;;;2.90;99.90;;;;;;5059526;28;20449;-77
2022/03/11 06:15:08;;;;;;;27.80;16.45;;;2.90;99.90;;;;;;5058028;28;20143;-79
2022/03/11 06:17:34;;;;;;;;;;;2.90;99.90;;;;;;5059982;28;20063;-76
2022/03/11 06:19:59;;;;;;;26.52;17.17;;;3.00;99.90;;;;;;5055622;28;19920;-78
2022/03/11 06:22:25;;;;;;;29.85;18.02;;;3.00;99.90;;;;;;5055145;28;20502;-80
2022/03/11 06:24:50;;;;;;;36.47;19.17;;;2.90;99.90;;;;;;5060803;28;20076;-78
2022/03/11 06:27:16;;;;;;;28.88;17.63;;;2.90;99.90;;;;;;5061397;28;20036;-79
2022/03/11 06:29:42;;;;;;;28.65;18.17;;;3.00;99.90;;;;;;5060999;28;20044;-77
2022/03/11 06:32:07;;;;;;;26.08;17.52;;;2.90;99.90;;;;;;5055510;28;20057;-77
2022/03/11 06:34:33;;;;;;;27.55;17.63;;;3.00;99.90;;;;;;5054262;28;20048;-77
2022/03/11 06:36:59;;;;;;;26.00;17.02;;;3.10;99.90;;;;;;5057696;28;20491;-77
2022/03/11 06:39:24;;;;;;;28.13;17.98;;;3.10;99.90;;;;;;5058451;28;20049;-78
2022/03/11 06:41:50;;;;;;;24.10;16.55;;;3.00;99.90;;;;;;5060266;28;20041;-78
2022/03/11 06:44:16;;;;;;;29.52;17.38;;;3.00;99.90;;;;;;5058231;28;20041;-78
2022/03/11 06:46:42;;;;;;;26.30;17.45;;;3.10;99.90;;;;;;5057748;28;20053;-78
2022/03/11 06:49:07;;;;;;;28.67;19.67;;;3.10;99.90;;;;;;5058864;28;20081;-78
2022/03/11 06:51:33;;;;;;;32.58;20.58;;;3.10;99.90;;;;;;5040911;28;20044;-79
2022/03/11 06:53:59;;;;;;;26.63;17.00;;;3.10;99.90;;;;;;5055576;28;20044;-77
2022/03/11 06:56:24;;;;;;;26.17;17.70;;;3.10;99.90;;;;;;5059565;28;20498;-78
2022/03/11 06:58:50;;;;;;;26.02;18.98;;;3.10;99.90;;;;;;5058358;28;20049;-78
2022/03/11 07:01:17;;;;;;;24.35;17.67;;;3.20;99.90;;;;;;5053920;28;20047;-77
2022/03/11 07:03:43;;;;;;;31.45;20.58;;;3.20;99.90;;;;;;5063639;28;20133;-78
2022/03/11 07:06:08;;;;;;;27.42;17.90;;;3.30;99.90;;;;;;5050691;28;20459;-77
2022/03/11 07:08:34;;;;;;;31.05;19.50;;;3.30;99.90;;;;;;5060560;28;20052;-77
2022/03/11 07:11:00;;;;;;;26.75;18.27;;;3.30;99.90;;;;;;5055499;28;20038;-77
2022/03/11 07:13:26;;;;;;;24.58;16.98;;;3.40;99.90;;;;;;5053847;28;20406;-76
2022/03/11 07:15:52;;;;;;;28.77;18.73;;;3.40;99.90;;;;;;5055879;28;20061;-76
2022/03/11 07:18:18;;;;;;;28.33;18.83;;;3.50;99.90;;;;;;5055117;28;20682;-77
2022/03/11 07:20:43;;;;;;;26.38;17.05;;;3.50;99.90;;;;;;5055249;28;20047;-77
2022/03/11 07:23:09;;;;;;;29.58;17.55;;;3.60;99.90;;;;;;5051936;28;21192;-77
2022/03/11 07:25:36;;;;;;;30.48;17.85;;;3.70;99.90;;;;;;5058133;28;20395;-77
2022/03/11 07:28:02;;;;;;;24.00;17.40;;;3.70;99.90;;;;;;5056553;28;20044;-77
2022/03/11 07:30:27;;;;;;;25.42;18.45;;;3.70;99.90;;;;;;5056019;28;20047;-76
2022/03/11 07:32:53;;;;;;;25.08;17.65;;;3.80;99.90;;;;;;5055529;28;20046;-77
2022/03/11 07:35:19;;;;;;;25.30;17.27;;;3.90;99.90;;;;;;5057181;28;20090;-79
2022/03/11 07:37:44;;;;;;;23.83;17.38;;;3.90;99.90;;;;;;5053729;28;20128;-76
2022/03/11 07:40:11;;;;;;;26.10;16.95;;;4.00;99.90;;;;;;5055861;28;20044;-78
2022/03/11 07:42:42;;;;;;;30.33;18.95;;;4.10;99.90;;;;;;5058644;28;20404;-78
2022/03/11 07:45:11;;;;;;;25.15;17.33;;;4.10;99.90;;;;;;5055680;28;20044;-77
2022/03/11 07:47:37;;;;;;;25.70;18.42;;;4.20;99.90;;;;;;5054244;28;20061;-78
2022/03/11 07:50:04;;;;;;;29.15;18.05;;;4.20;99.90;;;;;;5060193;28;20577;-77
2022/03/11 07:52:29;;;;;;;26.10;16.38;;;4.30;99.90;;;;;;5068216;28;20051;-83
2022/03/11 07:54:56;;;;;;;27.88;16.98;;;4.40;99.90;;;;;;5063909;28;20499;-75
2022/03/11 07:57:21;;;;;;;26.23;19.17;;;4.40;99.90;;;;;;5070381;28;20502;-81
2022/03/11 07:59:47;;;;;;;24.85;16.90;;;4.40;99.90;;;;;;5061621;28;20040;-78
2022/03/11 08:02:15;;;;;;;28.33;17.95;;;4.60;99.90;;;;;;5061958;28;20051;-80
2022/03/11 08:04:42;;;;;;;23.67;17.73;;;4.60;99.90;;;;;;5061301;28;20106;-82
2022/03/11 08:07:11;;;;;;;26.85;16.10;;;4.70;99.90;;;;;;5061562;28;20048;-77
2022/03/11 08:09:38;;;;;;;30.27;20.08;;;4.80;99.90;;;;;;5062606;28;20048;-89
2022/03/11 08:12:04;;;;;;;26.05;18.00;;;4.90;99.90;;;;;;5060316;28;20043;-85
2022/03/11 08:14:30;;;;;;;24.25;16.60;;;4.90;99.90;;;;;;5064187;28;20047;-86
2022/03/11 08:16:56;;;;;;;24.40;16.90;;;5.00;99.90;;;;;;5048318;28;20889;-84
2022/03/11 08:19:23;;;;;;;24.55;18.60;;;5.10;99.90;;;;;;5066623;28;20393;-83
2022/03/11 08:21:52;;;;;;;23.67;15.90;;;5.20;99.90;;;;;;5062504;28;20140;-83
2022/03/11 08:24:18;;;;;;;23.35;15.52;;;5.30;99.90;;;;;;5061446;28;20082;-83
2022/03/11 08:26:44;;;;;;;25.85;16.30;;;5.30;99.90;;;;;;5065210;28;20044;-83
2022/03/11 08:29:10;;;;;;;23.25;16.77;;;5.30;99.90;;;;;;5031711;28;20099;-82
2022/03/11 08:31:36;;;;;;;21.95;16.23;;;5.40;99.90;;;;;;5061219;28;20454;-84
2022/03/11 08:34:02;;;;;;;26.33;17.50;;;5.50;99.90;;;;;;5053804;28;20080;-85
2022/03/11 08:36:28;;;;;;;25.35;18.27;;;5.60;99.90;;;;;;5047359;28;20075;-84
2022/03/11 08:38:53;;;;;;;24.45;16.80;;;5.70;99.90;;;;;;5066122;28;20047;-83
2022/03/11 08:41:20;;;;;;;27.73;17.00;;;5.70;99.90;;;;;;5066782;28;20530;-84
2022/03/11 08:43:49;;;;;;;26.60;17.33;;;5.80;99.90;;;;;;5063857;28;21277;-83
2022/03/11 08:46:15;;;;;;;23.27;17.10;;;5.90;99.90;;;;;;5067706;28;20067;-83
2022/03/11 08:48:41;;;;;;;27.58;18.13;;;6.10;99.90;;;;;;5060827;28;20037;-84
2022/03/11 08:51:07;;;;;;;28.67;17.75;;;6.10;99.90;;;;;;5077784;28;20106;-81
2022/03/11 08:53:33;;;;;;;23.77;17.30;;;6.10;99.90;;;;;;5077756;28;20487;-81
2022/03/11 08:55:58;;;;;;;27.02;16.50;;;6.30;99.90;;;;;;5069892;28;20471;-80
2022/03/11 08:58:24;;;;;;;36.88;17.35;;;6.20;99.90;;;;;;5072502;28;20047;-83
2022/03/11 09:00:50;;;;;;;25.83;16.58;;;6.40;99.90;;;;;;5072686;28;20040;-80
2022/03/11 09:03:15;;;;;;;25.88;15.93;;;6.50;99.90;;;;;;5074015;28;20044;-83
2022/03/11 09:05:41;;;;;;;24.92;16.13;;;6.70;99.90;;;;;;5081772;28;20033;-83
2022/03/11 09:08:07;;;;;;;26.48;16.88;;;6.80;99.90;;;;;;5065333;28;20463;-80
2022/03/11 09:10:34;;;;;;;23.38;16.05;;;6.90;99.90;;;;;;5059646;28;20797;-78
2022/03/11 09:13:00;;;;;;;22.23;15.43;;;7.00;99.90;;;;;;5061117;28;20051;-78
2022/03/11 09:15:26;;;;;;;25.50;16.65;;;7.00;99.90;;;;;;5058719;28;20036;-77
2022/03/11 09:17:52;;;;;;;27.08;17.02;;;7.10;99.90;;;;;;5063693;28;20045;-79
2022/03/11 09:20:17;;;;;;;24.27;15.63;;;7.00;99.90;;;;;;5065237;28;20403;-79
2022/03/11 09:22:43;;;;;;;21.85;15.25;;;7.10;99.90;;;;;;5062973;28;20067;-80
2022/03/11 09:25:10;;;;;;;21.48;15.73;;;7.10;99.90;;;;;;5065502;28;20032;-80
2022/03/11 09:27:37;;;;;;;23.42;17.35;;;7.20;99.90;;;;;;5068002;28;20044;-80
2022/03/11 09:30:05;;;;;;;23.35;16.17;;;7.30;99.90;;;;;;5048106;28;20127;-79
2022/03/11 09:32:31;;;;;;;25.42;16.83;;;7.30;99.90;;;;;;5058929;28;20037;-80
2022/03/11 09:34:58;;;;;;;23.52;16.70;;;7.30;99.90;;;;;;5060199;28;20049;-88
2022/03/11 09:37:23;;;;;;;24.85;17.13;;;7.30;99.90;;;;;;5060791;28;20467;-78
2022/03/11 09:39:49;;;;;;;26.48;17.20;;;7.40;99.90;;;;;;5058512;28;20083;-77
2022/03/11 09:42:14;;;;;;;24.00;16.55;;;7.50;99.90;;;;;;5059083;28;20064;-77
2022/03/11 09:44:41;;;;;;;25.25;15.80;;;7.50;99.90;;;;;;5058964;28;20056;-77
2022/03/11 09:47:07;;;;;;;22.35;16.30;;;7.60;99.90;;;;;;5060415;28;20080;-77
2022/03/11 09:49:35;;;;;;;23.63;16.25;;;7.60;99.90;;;;;;5060117;28;20044;-78
2022/03/11 09:52:07;;;;;;;23.65;16.15;;;7.60;99.90;;;;;;5059691;28;20041;-78
2022/03/11 09:54:34;;;;;;;21.17;15.63;;;7.70;99.90;;;;;;5059507;28;20490;-80
2022/03/11 09:57:00;;;;;;;26.48;16.13;;;7.70;99.90;;;;;;5058952;28;20056;-84
2022/03/11 09:59:26;;;;;;;24.77;16.40;;;7.70;99.90;;;;;;5064516;28;20036;-78
2022/03/11 10:01:53;;;;;;;23.73;16.40;;;7.70;99.90;;;;;;5067106;28;20078;-82
2022/03/11 10:04:19;;;;;;;22.80;16.92;;;7.70;99.90;;;;;;5047447;28;20243;-80
2022/03/11 10:06:46;;;;;;;20.45;15.15;;;8.00;99.90;;;;;;5069283;28;20538;-79
2022/03/11 10:09:18;;;;;;;28.83;19.13;;;8.10;99.90;;;;;;5054385;28;20069;-84
2022/03/11 10:11:52;;;;;;;26.00;17.80;;;8.20;99.90;;;;;;5065086;28;20033;-81
2022/03/11 10:14:34;;;;;;;19.92;15.48;;;8.10;99.90;;;;;;5056435;28;20080;-78
2022/03/11 10:17:00;;;;;;;22.55;16.08;;;8.10;99.90;;;;;;5059491;28;20048;-82
2022/03/11 10:19:25;;;;;;;22.95;16.98;;;8.30;99.90;;;;;;5061106;28;20041;-77
2022/03/11 10:21:51;;;;;;;23.25;15.45;;;8.30;99.90;;;;;;5059346;28;20071;-80
2022/03/11 10:24:20;;;;;;;21.95;16.48;;;8.30;99.90;;;;;;5057219;28;20785;-82
2022/03/11 10:26:48;;;;;;;20.95;15.80;;;8.40;99.90;;;;;;5030241;28;20044;-80
2022/03/11 10:29:19;;;;;;;21.92;15.68;;;8.40;99.90;;;;;;5058483;28;20047;-84
2022/03/11 10:31:47;;;;;;;22.52;15.60;;;8.60;99.90;;;;;;5051687;28;20044;-79
2022/03/11 10:34:23;;;;;;;26.02;16.20;;;8.60;99.90;;;;;;5060835;28;20033;-80
2022/03/11 10:37:03;;;;;;;23.80;16.75;;;8.60;99.90;;;;;;5062895;28;20055;-80
2022/03/11 10:39:36;;;;;;;22.73;16.65;;;8.40;99.90;;;;;;5058358;28;20045;-81
2022/03/11 10:42:23;;;;;;;26.25;17.98;;;8.50;99.90;;;;;;5062499;28;20579;-86
2022/03/11 10:45:08;;;;;;;24.83;16.10;;;8.50;99.90;;;;;;5058650;28;20531;-81
2022/03/11 10:47:35;;;;;;;28.17;18.60;;;8.80;99.90;;;;;;5057123;28;20057;-82
2022/03/11 10:50:09;;;;;;;27.25;19.00;;;8.60;99.90;;;;;;5058451;28;20037;-80
2022/03/11 10:52:46;;;;;;;45.85;18.27;;;8.60;99.90;;;;;;5042867;28;20040;-80
2022/03/11 10:55:26;;;;;;;26.60;17.58;;;8.70;99.90;;;;;;5063182;28;20048;-81
2022/03/11 10:58:04;;;;;;;21.52;16.58;;;8.90;99.90;;;;;;5066860;28;20066;-82
2022/03/11 11:00:32;;;;;;;24.42;16.63;;;8.90;99.90;;;;;;5063349;28;20049;-79
2022/03/11 11:03:05;;;;;;;21.80;17.25;;;8.90;99.90;;;;;;5060056;28;20116;-78
2022/03/11 11:05:31;;;;;;;32.47;17.67;;;9.00;99.90;;;;;;5058700;28;20041;-80
2022/03/11 11:07:59;;;;;;;25.27;18.33;;;8.90;99.90;;;;;;5056499;28;20064;-80
2022/03/11 11:10:27;;;;;;;23.17;16.27;;;9.20;99.90;;;;;;5054426;28;20556;-81
2022/03/11 11:12:53;;;;;;;19.63;15.40;;;9.20;99.90;;;;;;5058766;28;20537;-81
2022/03/11 11:15:19;;;;;;;26.10;17.85;;;9.00;99.90;;;;;;5057345;28;20489;-79
2022/03/11 11:17:47;;;;;;;28.10;16.60;;;9.30;99.90;;;;;;5059096;28;20076;-81
2022/03/11 11:20:44;;;;;;;24.48;17.83;;;9.30;99.90;;;;;;5060121;28;20097;-86
2022/03/11 11:23:09;;;;;;;23.80;15.88;;;9.20;99.90;;;;;;5048501;28;20052;-80
2022/03/11 11:25:36;;;;;;;23.00;16.90;;;9.40;99.90;;;;;;5050857;28;20055;-83
2022/03/11 11:28:06;;;;;;;27.88;17.60;;;9.40;99.90;;;;;;5073574;28;20121;-83
2022/03/11 11:30:32;;;;;;;23.60;16.95;;;9.40;99.90;;;;;;5042535;28;20351;-80
2022/03/11 11:33:00;;;;;;;25.10;19.77;;;9.60;99.90;;;;;;5070403;28;20127;-80
2022/03/11 11:35:34;;;;;;;29.80;17.23;;;9.60;99.90;;;;;;5065721;28;20044;-80
2022/03/11 11:38:02;;;;;;;24.60;17.50;;;9.80;99.90;;;;;;5065984;28;20040;-81
2022/03/11 11:40:36;;;;;;;22.63;17.25;;;9.70;99.90;;;;;;5066909;28;20028;-79
2022/03/11 11:43:28;;;;;;;20.30;16.10;;;9.80;99.90;;;;;;5055341;28;20079;-80
2022/03/11 11:46:04;;;;;;;43.67;18.55;;;9.70;99.90;;;;;;5061522;28;20094;-84
2022/03/11 11:48:33;;;;;;;29.23;18.95;;;9.70;99.90;;;;;;5058830;28;20058;-82
2022/03/11 11:51:06;;;;;;;26.10;16.00;;;9.80;99.90;;;;;;5065963;28;20398;-82
2022/03/11 11:53:32;;;;;;;24.33;16.90;;;9.90;99.90;;;;;;5059900;28;20051;-82
2022/03/11 11:55:59;;;;;;;25.85;17.98;;;10.00;99.90;;;;;;5062495;28;20405;-83
2022/03/11 11:58:24;;;;;;;21.52;16.67;;;10.00;99.90;;;;;;5066509;28;20812;-83
2022/03/11 12:00:57;;;;;;;23.10;17.15;;;10.10;99.90;;;;;;5067314;28;20034;-83
2022/03/11 12:03:48;;;;;;;25.23;17.02;;;10.00;99.90;;;;;;5058085;28;20048;-82
2022/03/11 12:06:55;;;;;;;27.70;17.42;;;10.10;99.90;;;;;;5063119;28;20043;-84
2022/03/11 12:09:39;;;;;;;24.27;16.65;;;10.20;99.90;;;;;;5066077;28;20048;-82
2022/03/11 12:12:06;;;;;;;25.27;18.65;;;10.10;99.90;;;;;;5061429;28;20041;-83
2022/03/11 12:14:32;;;;;;;22.05;15.57;;;10.20;99.90;;;;;;5056540;28;20041;-80
2022/03/11 12:17:04;;;;;;;28.75;18.35;;;10.30;99.90;;;;;;5057845;28;20055;-82
2022/03/11 12:19:48;;;;;;;26.48;16.33;;;10.50;99.90;;;;;;5056994;28;20044;-83
2022/03/11 12:22:31;;;;;;;28.50;17.80;;;10.30;99.90;;;;;;5056914;28;20043;-83
2022/03/11 12:25:05;;;;;;;30.25;18.02;;;10.50;99.90;;;;;;5042151;28;20498;-83
2022/03/11 12:28:04;;;;;;;26.50;17.65;;;10.40;99.90;;;;;;5057889;28;20041;-82
2022/03/11 12:30:38;;;;;;;25.52;17.80;;;10.60;99.90;;;;;;5056371;28;20052;-80
2022/03/11 12:33:15;;;;;;;21.25;15.88;;;10.60;99.90;;;;;;5063712;28;20078;-84
2022/03/11 12:35:42;;;;;;;22.38;16.10;;;10.70;99.90;;;;;;5058483;28;20079;-84
2022/03/11 12:38:14;;;;;;;22.13;15.73;;;10.80;99.90;;;;;;5058713;28;20479;-82
2022/03/11 12:40:40;;;;;;;22.23;15.85;;;10.70;99.90;;;;;;5057003;28;20530;-81